Abingdon, Maryland
Current Conditions -  °F | °C
As of 5:50 PM on Thursday 18 Dec 2014 (Local Time) from KAPG Reporting Station
Overcast Overcast  
Wind Chill: 31°   Ceiling: 4000
Heat Index: 37°   Visibility: 7mi
Dew Point: 27°   Wind: 8mph
Humidity: 65%   Direction: 300°WNW
Pressure: 30.08"   Gusts: NA
Location:  39.46°N, 76.28°W
Report Text: KAPG 182250Z 30007KT 7SM OVC040 03/M03 A3008
Loading
Personal Weather Stations






























Interactive Weather Map New forecast layout! Learn more

10-Day Weather Forecast

Advertisements
Track Severe Weather on mobile